createdAt,value
2023-11-01T00:01:10.730Z,100503.94
2023-11-01T00:03:37.713Z,100499.75
2023-11-01T00:06:05.084Z,100498.22
2023-11-01T00:08:31.949Z,100490.88
2023-11-01T00:10:58.832Z,100493.78
2023-11-01T00:13:25.680Z,100492.72
2023-11-01T00:15:52.459Z,100489.31
2023-11-01T00:18:19.792Z,100492.25
2023-11-01T00:20:46.946Z,100487.78
2023-11-01T00:23:13.859Z,100482.56
2023-11-01T00:25:42.045Z,100488.84
2023-11-01T00:28:09.276Z,100485.47
2023-11-01T00:30:36.579Z,100481.00
2023-11-01T00:33:03.710Z,100464.56
2023-11-01T00:35:30.564Z,100458.59
2023-11-01T00:37:57.367Z,100452.59
2023-11-01T00:40:24.135Z,100445.81
2023-11-01T00:42:51.052Z,100447.38
2023-11-01T00:45:18.102Z,100451.81
2023-11-01T00:47:45.136Z,100445.53
2023-11-01T00:50:11.985Z,100448.13
2023-11-01T00:52:38.799Z,100439.81
2023-11-01T00:55:06.173Z,100441.34
2023-11-01T00:57:33.981Z,100437.69
2023-11-01T01:00:02.312Z,100432.47
2023-11-01T01:02:29.349Z,100428.78
2023-11-01T01:04:56.279Z,100428.78
2023-11-01T01:07:23.745Z,100426.19
2023-11-01T01:09:50.704Z,100425.69
2023-11-01T01:12:17.572Z,100417.56
2023-11-01T01:14:44.511Z,100413.13
2023-11-01T01:17:11.422Z,100411.31
2023-11-01T01:19:38.309Z,100413.59
2023-11-01T01:22:05.443Z,100418.53
2023-11-01T01:24:32.389Z,100420.09
2023-11-01T01:26:59.198Z,100414.06
2023-11-01T01:29:26.020Z,100409.66
2023-11-01T01:31:52.811Z,100416.13
2023-11-01T01:34:19.760Z,100405.19
2023-11-01T01:36:46.535Z,100409.06
2023-11-01T01:39:13.304Z,100406.75
2023-11-01T01:41:40.506Z,100404.16
2023-11-01T01:44:08.116Z,100400.44
2023-11-01T01:46:35.605Z,100394.19
2023-11-01T01:49:02.637Z,100394.94
2023-11-01T01:51:29.700Z,100380.66
2023-11-01T01:53:57.225Z,100381.41
2023-11-01T01:56:25.860Z,100377.25
2023-11-01T01:58:53.538Z,100367.88
2023-11-01T02:01:32.404Z,100371.53
2023-11-01T02:04:05.723Z,100370.78
2023-11-01T02:06:32.723Z,100364.00
2023-11-01T02:08:59.602Z,100352.03
2023-11-01T02:11:26.504Z,100345.72
2023-11-01T02:13:53.286Z,100341.28
2023-11-01T02:16:20.109Z,100339.44
2023-11-01T02:18:46.927Z,100337.59
2023-11-01T02:21:13.805Z,100350.66
2023-11-01T02:23:41.824Z,100338.34
2023-11-01T02:26:08.765Z,100338.66
2023-11-01T02:28:35.983Z,100336.34
2023-11-01T02:31:04.737Z,100334.22
2023-11-01T02:33:32.840Z,100329.00
2023-11-01T02:35:59.649Z,100334.22
2023-11-01T02:38:26.462Z,100327.44
2023-11-01T02:40:53.235Z,100327.44
2023-11-01T02:43:20.043Z,100327.44
2023-11-01T02:45:47.154Z,100318.84
2023-11-01T02:48:14.144Z,100314.38
2023-11-01T02:50:41.256Z,100313.91
2023-11-01T02:53:08.017Z,100319.13
2023-11-01T02:55:34.832Z,100309.47
2023-11-01T02:58:03.742Z,100310.25
2023-11-01T03:00:30.629Z,100302.13
2023-11-01T03:02:58.637Z,100302.88
2023-11-01T03:05:29.699Z,100298.44
2023-11-01T03:07:57.765Z,100295.53
2023-11-01T03:10:24.993Z,100297.09
2023-11-01T03:12:51.869Z,100287.41
2023-11-01T03:15:18.819Z,100286.31
2023-11-01T03:17:45.748Z,100285.28
2023-11-01T03:20:12.749Z,100289.41
2023-11-01T03:22:39.646Z,100283.91
2023-11-01T03:25:07.101Z,100280.25
2023-11-01T03:27:34.111Z,100285.47
2023-11-01T03:30:01.110Z,100286.25
2023-11-01T03:32:28.123Z,100282.56
2023-11-01T03:34:54.997Z,100275.50
2023-11-01T03:37:21.812Z,100270.59
2023-11-01T03:39:48.642Z,100272.91
2023-11-01T03:42:15.577Z,100265.06
2023-11-01T03:44:43.223Z,100264.75
2023-11-01T03:47:10.107Z,100264.75
2023-11-01T03:49:36.897Z,100251.41
2023-11-01T03:52:04.528Z,100252.47
2023-11-01T03:54:35.007Z,100251.41
2023-11-01T03:57:04.047Z,100248.50
2023-11-01T03:59:32.204Z,100250.03
2023-11-01T04:01:59.688Z,100243.28
2023-11-01T04:04:26.483Z,100250.81
2023-11-01T04:06:53.307Z,100243.28
2023-11-01T04:09:20.305Z,100245.59
2023-11-01T04:11:47.335Z,100237.75
2023-11-01T04:14:15.935Z,100233.31
2023-11-01T04:16:43.136Z,100234.06
2023-11-01T04:19:12.585Z,100230.41
2023-11-01T04:21:39.572Z,100226.69
2023-11-01T04:24:06.734Z,100224.09
2023-11-01T04:26:35.069Z,100223.03
2023-11-01T04:29:01.979Z,100218.09
2023-11-01T04:31:28.966Z,100223.03
2023-11-01T04:33:55.975Z,100218.28
2023-11-01T04:36:28.562Z,100221.94
2023-11-01T04:38:56.805Z,100215.66
2023-11-01T04:41:29.411Z,100211.22
2023-11-01T04:43:56.717Z,100205.69
2023-11-01T04:46:23.893Z,100205.69
2023-11-01T04:48:51.407Z,100203.84
2023-11-01T04:51:18.517Z,100199.38
2023-11-01T04:53:46.060Z,100196.78
2023-11-01T04:56:12.977Z,100191.25
2023-11-01T04:58:40.152Z,100193.56
2023-11-01T05:01:09.137Z,100192.50
2023-11-01T05:03:40.001Z,100202.94
2023-11-01T05:06:07.706Z,100189.88
2023-11-01T05:08:36.118Z,100187.25
2023-11-01T05:11:03.480Z,100180.22
2023-11-01T05:13:30.270Z,100179.13
2023-11-01T05:15:57.232Z,100168.69
2023-11-01T05:18:25.931Z,100171.78
2023-11-01T05:20:53.169Z,100173.31
2023-11-01T05:23:20.528Z,100168.84
2023-11-01T05:25:50.259Z,100158.41
2023-11-01T05:28:17.334Z,100161.19
2023-11-01T05:30:44.262Z,100156.75
2023-11-01T05:33:11.194Z,100160.88
2023-11-01T05:35:38.393Z,100151.22
2023-11-01T05:38:08.289Z,100148.28
2023-11-01T05:40:35.083Z,100145.38
2023-11-01T05:43:01.868Z,100148.75
2023-11-01T05:45:29.755Z,100140.31
2023-11-01T05:47:57.423Z,100138.47
2023-11-01T05:50:26.356Z,100144.94
2023-11-01T05:52:55.858Z,100136.03
2023-11-01T05:55:26.725Z,100140.16
2023-11-01T05:58:01.255Z,100136.97
2023-11-01T06:00:28.363Z,100137.44
2023-11-01T06:02:55.517Z,100137.91
2023-11-01T06:05:24.264Z,100143.88
2023-11-01T06:07:51.831Z,100144.06
2023-11-01T06:10:19.336Z,100145.59
2023-11-01T06:12:46.374Z,100141.91
2023-11-01T06:15:14.612Z,100143.13
2023-11-01T06:17:41.828Z,100153.00
2023-11-01T06:20:09.288Z,100154.53
2023-11-01T06:22:36.264Z,100144.53
2023-11-01T06:25:03.501Z,100143.16
2023-11-01T06:27:30.452Z,100147.31
2023-11-01T06:29:57.521Z,100147.78
2023-11-01T06:32:24.479Z,100146.72
2023-11-01T06:34:51.332Z,100147.19
2023-11-01T06:37:18.415Z,100143.47
2023-11-01T06:39:45.435Z,100154.41
2023-11-01T06:42:12.481Z,100145.50
2023-11-01T06:44:39.439Z,100156.41
2023-11-01T06:47:06.465Z,100158.75
2023-11-01T06:49:35.758Z,100150.56
2023-11-01T06:52:03.012Z,100151.34
2023-11-01T06:54:29.934Z,100149.22
2023-11-01T06:56:57.774Z,100151.50
2023-11-01T06:59:24.980Z,100144.44
2023-11-01T07:01:52.782Z,100153.81
2023-11-01T07:04:19.880Z,100150.91
2023-11-01T07:06:47.181Z,100158.44
2023-11-01T07:09:14.307Z,100153.97
2023-11-01T07:11:41.256Z,100157.06
2023-11-01T07:14:08.278Z,100157.81
2023-11-01T07:16:42.622Z,100165.38
2023-11-01T07:19:09.732Z,100163.97
2023-11-01T07:21:36.724Z,100158.75
2023-11-01T07:24:03.831Z,100153.97
2023-11-01T07:26:30.971Z,100155.22
2023-11-01T07:28:57.908Z,100155.22
2023-11-01T07:31:24.927Z,100147.84
2023-11-01T07:33:51.901Z,100149.84
2023-11-01T07:36:20.056Z,100148.78
2023-11-01T07:38:47.737Z,100151.84
2023-11-01T07:41:16.402Z,100148.13
2023-11-01T07:43:43.918Z,100140.00
2023-11-01T07:46:11.856Z,100148.31
2023-11-01T07:48:38.876Z,100150.63
2023-11-01T07:51:07.232Z,100148.00
2023-11-01T07:53:36.117Z,100148.00
2023-11-01T07:56:03.780Z,100151.38
2023-11-01T07:58:32.335Z,100157.06
2023-11-01T08:01:00.027Z,100154.16
2023-11-01T08:03:27.732Z,100155.22
2023-11-01T08:05:55.063Z,100145.22
2023-11-01T08:08:22.172Z,100154.63
2023-11-01T08:10:49.198Z,100152.47
2023-11-01T08:13:16.757Z,100148.44
2023-11-01T08:15:44.058Z,100124.28
2023-11-01T08:18:11.967Z,100134.13
2023-11-01T08:20:40.011Z,100133.81
2023-11-01T08:23:07.414Z,100132.44
2023-11-01T08:25:35.925Z,100132.13
2023-11-01T08:28:04.092Z,100130.72
2023-11-01T08:30:31.017Z,100122.28
2023-11-01T08:32:58.380Z,100124.56
2023-11-01T08:35:25.579Z,100131.81
2023-11-01T08:37:52.580Z,100130.75
2023-11-01T08:40:19.804Z,100120.72
2023-11-01T08:42:47.062Z,100130.09
2023-11-01T08:45:14.033Z,100118.56
2023-11-01T08:47:47.184Z,100128.25
2023-11-01T08:50:15.066Z,100125.31
2023-11-01T08:52:47.264Z,100119.50
2023-11-01T08:55:15.575Z,100118.13
2023-11-01T08:57:45.476Z,100120.09
2023-11-01T09:00:15.192Z,100122.41
2023-11-01T09:02:42.904Z,100115.00
2023-11-01T09:05:10.499Z,100121.16
2023-11-01T09:07:38.271Z,100114.06
2023-11-01T09:10:06.695Z,100114.53
2023-11-01T09:12:33.668Z,100118.06
2023-11-01T09:15:01.668Z,100105.56
2023-11-01T09:17:28.850Z,100113.25
2023-11-01T09:19:58.999Z,100103.84
2023-11-01T09:22:33.116Z,100104.09
2023-11-01T09:25:01.428Z,100103.47
2023-11-01T09:27:29.570Z,100095.63
2023-11-01T09:29:57.366Z,100099.00
2023-11-01T09:32:24.464Z,100086.34
2023-11-01T09:34:53.410Z,100088.47
2023-11-01T09:37:20.620Z,100092.78
2023-11-01T09:39:47.982Z,100087.41
2023-11-01T09:42:22.657Z,100082.63
2023-11-01T09:44:57.049Z,100084.59
2023-11-01T09:47:26.230Z,100080.91
2023-11-01T09:49:58.325Z,100090.28
2023-11-01T09:52:25.531Z,100092.44
2023-11-01T09:54:52.719Z,100091.06
2023-11-01T09:57:23.902Z,100077.31
2023-11-01T09:59:51.770Z,100079.00
2023-11-01T10:02:19.228Z,100076.50
2023-11-01T10:04:46.284Z,100077.69
2023-11-01T10:07:13.437Z,100068.97
2023-11-01T10:09:40.837Z,100062.16
2023-11-01T10:12:09.866Z,100056.97
2023-11-01T10:14:38.130Z,100053.81
2023-11-01T10:17:05.786Z,100063.91
2023-11-01T10:19:33.415Z,100054.97
2023-11-01T10:22:00.618Z,100039.22
2023-11-01T10:24:28.785Z,100041.53
2023-11-01T10:26:58.717Z,100045.38
2023-11-01T10:29:28.771Z,100036.41
2023-11-01T10:31:57.206Z,100041.34
2023-11-01T10:34:31.947Z,100036.84
2023-11-01T10:37:01.189Z,100051.97
2023-11-01T10:39:28.259Z,100043.22
2023-11-01T10:41:56.701Z,100046.00
2023-11-01T10:44:24.577Z,100035.06
2023-11-01T10:46:52.147Z,100031.78
2023-11-01T10:49:20.171Z,100020.66
2023-11-01T10:51:47.218Z,100013.69
2023-11-01T10:54:14.524Z,100022.34
2023-11-01T10:56:42.141Z,100018.16
2023-11-01T10:59:33.050Z,100008.88
2023-11-01T11:02:18.727Z,100001.34
2023-11-01T11:04:55.206Z,99996.88
2023-11-01T11:07:50.198Z,99991.94
2023-11-01T11:10:28.321Z,99988.09
2023-11-01T11:13:10.628Z,99986.38
2023-11-01T11:15:52.663Z,99989.34
2023-11-01T11:18:24.091Z,99984.66
2023-11-01T11:20:55.166Z,99969.34
2023-11-01T11:23:32.892Z,99960.38
2023-11-01T11:26:01.742Z,99960.81
2023-11-01T11:28:41.128Z,99962.66
2023-11-01T11:31:19.741Z,99959.16
2023-11-01T11:33:47.402Z,99963.44
2023-11-01T11:36:19.483Z,99947.00
2023-11-01T11:38:57.218Z,99944.59
2023-11-01T11:41:40.746Z,99931.25
2023-11-01T11:44:16.764Z,99934.00
2023-11-01T11:46:48.759Z,99936.75
2023-11-01T11:49:32.745Z,99928.22
2023-11-01T11:52:03.337Z,99920.03
2023-11-01T11:54:32.232Z,99921.00
2023-11-01T11:57:04.172Z,99922.09
2023-11-01T11:59:33.220Z,99908.97
2023-11-01T12:02:15.170Z,99911.81
2023-11-01T12:04:44.708Z,99907.03
2023-11-01T12:07:22.597Z,99902.41
2023-11-01T12:09:50.868Z,99900.44
2023-11-01T12:12:17.936Z,99890.16
2023-11-01T12:14:48.061Z,99895.84
2023-11-01T12:17:15.601Z,99885.75
2023-11-01T12:19:48.299Z,99885.06
2023-11-01T12:22:17.004Z,99881.16
2023-11-01T12:24:47.742Z,99874.59
2023-11-01T12:27:16.402Z,99870.22
2023-11-01T12:29:47.378Z,99868.81
2023-11-01T12:32:17.945Z,99862.38
2023-11-01T12:34:47.756Z,99859.44
2023-11-01T12:37:31.472Z,99865.00
2023-11-01T12:40:15.722Z,99845.72
2023-11-01T12:43:06.333Z,99837.56
2023-11-01T12:45:34.288Z,99829.53
2023-11-01T12:48:01.814Z,99818.81
2023-11-01T12:50:33.071Z,99823.44
2023-11-01T12:53:00.603Z,99814.34
2023-11-01T12:55:28.014Z,99813.94
2023-11-01T12:57:56.152Z,99807.13
2023-11-01T13:00:24.854Z,99797.63
2023-11-01T13:02:53.548Z,99788.31
2023-11-01T13:05:21.637Z,99791.38
2023-11-01T13:07:49.259Z,99785.47
2023-11-01T13:10:17.597Z,99779.09
2023-11-01T13:12:46.709Z,99782.56
2023-11-01T13:15:14.695Z,99779.94
2023-11-01T13:17:41.838Z,99764.44
2023-11-01T13:20:09.394Z,99762.56
2023-11-01T13:22:37.555Z,99761.56
2023-11-01T13:25:04.804Z,99760.13
2023-11-01T13:27:31.764Z,99765.03
2023-11-01T13:29:58.690Z,99757.84
2023-11-01T13:32:25.694Z,99756.31
2023-11-01T13:34:52.775Z,99751.41
2023-11-01T13:37:19.838Z,99752.72
2023-11-01T13:39:46.861Z,99760.53
2023-11-01T13:42:16.673Z,99754.97
2023-11-01T13:44:45.089Z,99755.34
2023-11-01T13:47:12.618Z,99744.56
2023-11-01T13:49:41.428Z,99742.72
2023-11-01T13:52:09.934Z,99730.59
2023-11-01T13:54:36.875Z,99729.75
2023-11-01T13:57:06.439Z,99721.00
2023-11-01T13:59:33.428Z,99720.56
2023-11-01T14:02:00.743Z,99714.22
2023-11-01T14:04:27.908Z,99710.19
2023-11-01T14:06:54.962Z,99710.81
2023-11-01T14:09:22.410Z,99703.28
2023-11-01T14:11:53.525Z,99698.72
2023-11-01T14:14:22.704Z,99687.03
2023-11-01T14:16:50.287Z,99683.63
2023-11-01T14:19:17.244Z,99675.31
2023-11-01T14:21:44.494Z,99674.56
2023-11-01T14:24:11.843Z,99680.88
2023-11-01T14:26:39.297Z,99678.84
2023-11-01T14:29:07.711Z,99676.53
2023-11-01T14:31:34.839Z,99673.38
2023-11-01T14:34:01.995Z,99665.06
2023-11-01T14:36:29.139Z,99665.38
2023-11-01T14:38:56.252Z,99667.16
2023-11-01T14:41:23.403Z,99660.25
2023-11-01T14:43:50.607Z,99663.88
2023-11-01T14:46:17.648Z,99651.00
2023-11-01T14:48:45.373Z,99649.03
2023-11-01T14:51:12.941Z,99647.84
2023-11-01T14:53:40.049Z,99653.66
2023-11-01T14:56:16.115Z,99658.00
2023-11-01T14:58:48.438Z,99655.50
2023-11-01T15:01:16.301Z,99653.44
2023-11-01T15:03:45.636Z,99645.34
2023-11-01T15:06:13.543Z,99648.19
2023-11-01T15:08:41.133Z,99651.00
2023-11-01T15:11:08.483Z,99643.81
2023-11-01T15:13:35.584Z,99646.31
2023-11-01T15:16:02.608Z,99655.59
2023-11-01T15:18:29.763Z,99640.09
2023-11-01T15:20:57.050Z,99641.38
2023-11-01T15:23:24.080Z,99640.50
2023-11-01T15:25:51.198Z,99639.94
2023-11-01T15:28:18.042Z,99638.31
2023-11-01T15:30:45.112Z,99632.19
2023-11-01T15:33:12.664Z,99642.56
2023-11-01T15:35:40.265Z,99635.34
2023-11-01T15:38:07.311Z,99630.00
2023-11-01T15:40:35.168Z,99636.31
2023-11-01T15:43:03.396Z,99630.19
2023-11-01T15:45:30.383Z,99629.75
2023-11-01T15:47:57.734Z,99626.69
2023-11-01T15:50:24.824Z,99632.59
2023-11-01T15:52:51.753Z,99632.16
2023-11-01T15:55:18.714Z,99633.84
2023-11-01T15:57:45.902Z,99632.31
2023-11-01T16:00:13.853Z,99630.31
2023-11-01T16:02:40.966Z,99627.72
2023-11-01T16:05:08.691Z,99620.19
2023-11-01T16:07:35.726Z,99611.56
2023-11-01T16:10:03.798Z,99598.03
2023-11-01T16:12:30.847Z,99610.59
2023-11-01T16:14:57.844Z,99608.72
2023-11-01T16:17:24.821Z,99605.22
2023-11-01T16:19:51.707Z,99610.00
2023-11-01T16:22:19.857Z,99602.47
2023-11-01T16:24:46.662Z,99609.13
2023-11-01T16:27:13.632Z,99606.06
2023-11-01T16:29:40.615Z,99610.53
2023-11-01T16:32:07.806Z,99611.63
2023-11-01T16:34:35.497Z,99605.63
2023-11-01T16:37:02.918Z,99602.56
2023-11-01T16:39:29.785Z,99594.72
2023-11-01T16:41:56.839Z,99596.88
2023-11-01T16:44:23.896Z,99597.19
2023-11-01T16:46:51.040Z,99601.22
2023-11-01T16:49:18.130Z,99597.84
2023-11-01T16:51:47.895Z,99591.84
2023-11-01T16:54:16.237Z,99593.69
2023-11-01T16:56:43.212Z,99594.47
2023-11-01T16:59:10.262Z,99594.00
2023-11-01T17:01:37.245Z,99596.63
2023-11-01T17:04:04.737Z,99592.06
2023-11-01T17:06:31.988Z,99597.91
2023-11-01T17:08:58.902Z,99595.16
2023-11-01T17:11:26.973Z,99595.81
2023-11-01T17:13:55.591Z,99601.53
2023-11-01T17:16:22.619Z,99607.75
2023-11-01T17:18:49.618Z,99612.84
2023-11-01T17:21:16.710Z,99606.72
2023-11-01T17:23:45.806Z,99605.19
2023-11-01T17:26:27.648Z,99609.97
2023-11-01T17:28:56.603Z,99616.19
2023-11-01T17:31:45.236Z,99606.34
2023-11-01T17:34:20.545Z,99600.97
2023-11-01T17:36:47.589Z,99605.75
2023-11-01T17:39:14.572Z,99610.41
2023-11-01T17:41:50.639Z,99611.50
2023-11-01T17:44:18.619Z,99604.63
2023-11-01T17:46:45.470Z,99615.38
2023-11-01T17:49:41.514Z,99616.00
2023-11-01T17:52:08.828Z,99617.41
2023-11-01T17:54:38.354Z,99610.97
2023-11-01T17:57:06.616Z,99604.50
2023-11-01T17:59:37.813Z,99604.06
2023-11-01T18:02:31.365Z,99618.53
2023-11-01T18:05:00.323Z,99607.31
2023-11-01T18:07:27.913Z,99597.47
2023-11-01T18:09:58.193Z,99598.88
2023-11-01T18:12:25.145Z,99601.81
2023-11-01T18:14:55.258Z,99581.56
2023-11-01T18:17:23.189Z,99583.41
2023-11-01T18:19:50.471Z,99585.88
2023-11-01T18:22:41.274Z,99584.66
2023-11-01T18:25:30.857Z,99593.88
2023-11-01T18:28:01.935Z,99590.81
2023-11-01T18:30:29.004Z,99585.16
2023-11-01T18:32:56.008Z,99580.69
2023-11-01T18:35:30.979Z,99604.19
2023-11-01T18:37:57.771Z,99595.13
2023-11-01T18:40:25.776Z,99587.75
2023-11-01T18:42:58.766Z,99580.38
2023-11-01T18:45:25.891Z,99585.16
2023-11-01T18:47:54.249Z,99584.38
2023-11-01T18:50:21.331Z,99581.94
2023-11-01T18:52:48.589Z,99573.66
2023-11-01T18:55:33.770Z,99567.22
2023-11-01T18:58:00.626Z,99571.38
2023-11-01T19:00:28.458Z,99574.59
2023-11-01T19:03:06.897Z,99579.81
2023-11-01T19:05:34.886Z,99582.44
2023-11-01T19:08:02.169Z,99586.13
2023-11-01T19:10:34.702Z,99576.75
2023-11-01T19:13:02.819Z,99574.75
2023-11-01T19:15:38.605Z,99582.16
2023-11-01T19:18:11.278Z,99578.59
2023-11-01T19:20:40.342Z,99578.94
2023-11-01T19:23:08.022Z,99581.84
2023-11-01T19:25:35.240Z,99592.91
2023-11-01T19:28:03.457Z,99590.94
2023-11-01T19:30:30.379Z,99587.22
2023-11-01T19:32:57.509Z,99583.41
2023-11-01T19:35:24.438Z,99585.56
2023-11-01T19:37:51.360Z,99578.69
2023-11-01T19:40:19.950Z,99593.56
2023-11-01T19:42:47.303Z,99600.16
2023-11-01T19:45:14.277Z,99597.88
2023-11-01T19:47:42.258Z,99597.09
2023-11-01T19:50:09.974Z,99594.81
2023-11-01T19:52:38.002Z,99595.59
2023-11-01T19:55:05.425Z,99588.81
2023-11-01T19:57:33.694Z,99585.75
2023-11-01T20:00:00.927Z,99582.69
2023-11-01T20:02:28.069Z,99592.38
2023-11-01T20:04:55.357Z,99596.38
2023-11-01T20:07:22.442Z,99588.53
2023-11-01T20:09:49.280Z,99585.94
2023-11-01T20:12:16.184Z,99577.31
2023-11-01T20:14:43.338Z,99577.97
2023-11-01T20:17:11.822Z,99568.13
2023-11-01T20:19:38.824Z,99579.97
2023-11-01T20:22:05.770Z,99573.53
2023-11-01T20:24:32.742Z,99581.66
2023-11-01T20:26:59.711Z,99574.47
2023-11-01T20:29:27.801Z,99573.69
2023-11-01T20:31:54.785Z,99562.34
2023-11-01T20:34:22.037Z,99561.56
2023-11-01T20:36:49.039Z,99554.06
2023-11-01T20:39:15.889Z,99552.38
2023-11-01T20:41:43.427Z,99550.06
2023-11-01T20:44:10.236Z,99548.22
2023-11-01T20:46:37.153Z,99535.81
2023-11-01T20:49:04.870Z,99552.06
2023-11-01T20:51:31.847Z,99551.63
2023-11-01T20:53:59.689Z,99550.09
2023-11-01T20:56:26.783Z,99537.66
2023-11-01T20:58:54.287Z,99538.75
2023-11-01T21:01:21.231Z,99523.41
2023-11-01T21:03:49.098Z,99522.19
2023-11-01T21:06:16.298Z,99529.88
2023-11-01T21:08:43.294Z,99522.34
2023-11-01T21:11:10.422Z,99509.63
2023-11-01T21:13:37.339Z,99509.94
2023-11-01T21:16:04.723Z,99504.28
2023-11-01T21:18:33.070Z,99496.75
2023-11-01T21:21:02.022Z,99492.94
2023-11-01T21:23:29.062Z,99488.31
2023-11-01T21:25:56.603Z,99489.41
2023-11-01T21:28:23.707Z,99487.41
2023-11-01T21:30:50.857Z,99485.44
2023-11-01T21:33:22.500Z,99484.50
2023-11-01T21:35:49.802Z,99474.41
2023-11-01T21:38:18.138Z,99469.03
2023-11-01T21:40:47.881Z,99473.47
2023-11-01T21:43:18.659Z,99480.06
2023-11-01T21:45:52.819Z,99478.84
2023-11-01T21:48:25.813Z,99467.19
2023-11-01T21:50:56.155Z,99457.84
2023-11-01T21:53:23.823Z,99459.53
2023-11-01T21:55:55.594Z,99463.22
2023-11-01T21:58:26.462Z,99461.22
2023-11-01T22:01:00.014Z,99465.22
2023-11-01T22:03:42.159Z,99458.44
2023-11-01T22:06:39.606Z,99445.75
2023-11-01T22:09:06.568Z,99450.50
2023-11-01T22:11:40.157Z,99439.63
2023-11-01T22:14:09.007Z,99426.91
2023-11-01T22:16:37.656Z,99422.31
2023-11-01T22:19:38.499Z,99422.63
2023-11-01T22:22:21.368Z,99414.03
2023-11-01T22:24:48.857Z,99405.00
2023-11-01T22:27:17.554Z,99389.66
2023-11-01T22:29:51.104Z,99389.22
2023-11-01T22:32:23.574Z,99390.16
2023-11-01T22:34:52.964Z,99384.47
2023-11-01T22:37:28.509Z,99393.34
2023-11-01T22:39:57.062Z,99391.84
2023-11-01T22:42:32.139Z,99387.69
2023-11-01T22:45:03.510Z,99387.38
2023-11-01T22:47:31.238Z,99378.06
2023-11-01T22:49:59.153Z,99373.75
2023-11-01T22:52:26.119Z,99362.56
2023-11-01T22:54:53.047Z,99357.38
2023-11-01T22:57:19.908Z,99353.56
2023-11-01T22:59:46.816Z,99341.00
2023-11-01T23:02:16.592Z,99338.69
2023-11-01T23:04:43.879Z,99337.94
2023-11-01T23:07:11.721Z,99331.50
2023-11-01T23:09:38.706Z,99316.94
2023-11-01T23:12:06.320Z,99320.75
2023-11-01T23:14:33.242Z,99309.13
2023-11-01T23:17:00.029Z,99311.44
2023-11-01T23:19:27.051Z,99299.47
2023-11-01T23:21:54.102Z,99300.56
2023-11-01T23:24:24.412Z,99290.91
2023-11-01T23:26:54.879Z,99282.81
2023-11-01T23:29:37.021Z,99276.84
2023-11-01T23:32:17.091Z,99271.63
2023-11-01T23:34:52.184Z,99255.56
2023-11-01T23:37:38.842Z,99261.81
2023-11-01T23:40:11.548Z,99265.81
2023-11-01T23:42:38.626Z,99249.91
2023-11-01T23:45:55.142Z,99251.72
2023-11-01T23:48:22.044Z,99243.44
2023-11-01T23:50:49.392Z,99234.88
2023-11-01T23:53:26.300Z,99233.81
2023-11-01T23:55:54.014Z,99217.13
2023-11-01T23:58:34.793Z,99207.47
